Time;durP1;ratioP1;P1;durP2;ratioP2;P2;SDS_P1;SDS_P2;PMS_P1;PMS_P2;Temp;Humidity;BMP_temperature;BMP_pressure;BME280_temperature;BME280_humidity;BME280_pressure;Samples;Min_cycle;Max_cycle;Signal;HPM_P1;HPM_P2
2023/01/21 00:01:52;;;;;;;;;;;27.50;82.00;;;;;;5022909;28;19917;-53
2023/01/21 00:04:35;;;;;;;;;;;27.50;81.70;;;;;;5024272;28;19911;-55
2023/01/21 00:07:01;;;;;;;;;;;27.50;81.70;;;;;;5024378;28;19994;-54
2023/01/21 00:09:28;;;;;;;;;;;27.50;81.60;;;;;;5024564;28;19913;-52
2023/01/21 00:11:54;;;;;;;;;;;27.50;81.50;;;;;;5024575;28;19910;-54
2023/01/21 00:14:22;;;;;;;;;;;27.50;81.40;;;;;;5024263;28;19908;-56
2023/01/21 00:16:49;;;;;;;;;;;27.40;81.30;;;;;;5024674;28;19916;-51
2023/01/21 00:19:16;;;;;;;;;;;27.40;81.20;;;;;;5024264;28;19928;-53
2023/01/21 00:21:43;;;;;;;;;;;27.40;80.90;;;;;;5024315;28;19909;-53
2023/01/21 00:24:09;;;;;;;;;;;27.40;81.00;;;;;;5023914;28;19905;-54
2023/01/21 00:26:37;;;;;;;;;;;27.40;80.60;;;;;;5023917;28;19913;-56
2023/01/21 00:29:04;;;;;;;;;;;27.40;80.40;;;;;;5023902;28;19909;-60
2023/01/21 00:31:32;;;;;;;;;;;27.30;80.10;;;;;;5024149;28;19996;-52
2023/01/21 00:33:59;;;;;;;;;;;27.30;79.80;;;;;;5024296;28;19905;-52
2023/01/21 00:36:28;;;;;;;;;;;27.30;79.60;;;;;;5023981;28;19916;-52
2023/01/21 00:38:58;;;;;;;;;;;27.30;79.30;;;;;;5023945;28;19952;-54
2023/01/21 00:41:25;;;;;;;;;;;27.30;79.20;;;;;;5023795;28;19976;-53
2023/01/21 00:43:51;;;;;;;;;;;27.30;78.70;;;;;;5024086;28;20240;-59
2023/01/21 00:46:17;;;;;;;;;;;27.30;78.70;;;;;;5023892;28;19905;-53
2023/01/21 00:48:43;;;;;;;;;;;27.30;78.50;;;;;;5023774;28;19963;-52
2023/01/21 00:51:10;;;;;;;;;;;27.30;78.00;;;;;;5025686;28;19907;-57
2023/01/21 00:53:37;;;;;;;;;;;27.20;78.00;;;;;;5027520;28;19991;-55
2023/01/21 00:56:05;;;;;;;;;;;27.20;77.90;;;;;;5027429;28;19905;-59
2023/01/21 00:58:32;;;;;;;;;;;27.20;77.80;;;;;;5027280;28;19906;-56
2023/01/21 01:01:09;;;;;;;;;;;27.20;77.80;;;;;;5027299;28;20137;-52
2023/01/21 01:03:36;;;;;;;;;;;27.20;77.80;;;;;;5027080;28;20082;-55
2023/01/21 01:06:03;;;;;;;;;;;27.20;77.80;;;;;;5027250;28;20204;-52
2023/01/21 01:08:29;;;;;;;;;;;27.20;77.80;;;;;;5026971;28;19917;-54
2023/01/21 01:10:55;;;;;;;;;;;27.10;77.70;;;;;;5027237;28;19945;-53
2023/01/21 01:13:25;;;;;;;;;;;27.10;77.40;;;;;;5027661;28;19909;-53
2023/01/21 01:15:56;;;;;;;;;;;27.10;77.40;;;;;;5027054;28;19909;-52
2023/01/21 01:18:22;;;;;;;;;;;27.10;77.30;;;;;;5027337;28;19913;-53
2023/01/21 01:20:49;;;;;;;;;;;27.10;77.10;;;;;;5027101;28;19942;-53
2023/01/21 01:23:39;;;;;;;;;;;27.10;77.00;;;;;;5025811;28;19909;-56
2023/01/21 01:26:05;;;;;;;;;;;27.00;76.60;;;;;;5026677;28;19905;-53
2023/01/21 01:28:32;;;;;;;;;;;27.10;76.50;;;;;;5027692;28;19909;-56
2023/01/21 01:30:58;;;;;;;;;;;27.10;76.40;;;;;;5025988;28;20189;-53
2023/01/21 01:33:25;;;;;;;;;;;27.00;76.10;;;;;;5027803;28;19909;-56
2023/01/21 01:35:51;;;;;;;;;;;27.10;76.20;;;;;;5026874;28;19970;-53
2023/01/21 01:38:19;;;;;;;;;;;27.00;76.10;;;;;;5027241;28;20129;-51
2023/01/21 01:40:46;;;;;;;;;;;27.00;76.00;;;;;;5026213;28;19997;-52
2023/01/21 01:43:20;;;;;;;;;;;27.00;76.40;;;;;;5024121;28;19924;-56
2023/01/21 01:45:47;;;;;;;;;;;27.00;76.20;;;;;;5021834;28;19987;-52
2023/01/21 01:48:43;;;;;;;;;;;27.00;76.00;;;;;;5022526;28;19972;-52
2023/01/21 01:51:09;;;;;;;;;;;27.00;75.90;;;;;;5023754;28;19960;-51
2023/01/21 01:53:42;;;;;;;;;;;27.00;75.70;;;;;;5022094;28;19905;-53
2023/01/21 01:56:12;;;;;;;;;;;27.00;75.70;;;;;;5027149;28;19907;-63
2023/01/21 01:58:39;;;;;;;;;;;27.00;75.40;;;;;;5027013;28;20113;-56
2023/01/21 02:01:17;;;;;;;;;;;26.90;75.30;;;;;;5026625;28;19901;-51
2023/01/21 02:03:51;;;;;;;;;;;26.90;75.10;;;;;;5026389;28;19943;-57
2023/01/21 02:06:18;;;;;;;;;;;26.90;75.10;;;;;;5026350;28;19902;-53
2023/01/21 02:08:45;;;;;;;;;;;26.90;75.00;;;;;;5025963;28;19913;-53
2023/01/21 02:11:15;;;;;;;;;;;26.90;75.10;;;;;;5026134;28;19901;-53
2023/01/21 02:13:43;;;;;;;;;;;26.90;75.10;;;;;;5025531;28;19905;-53
2023/01/21 02:30:04;;;;;;;;;;;26.90;74.10;;;;;;5057871;28;19979;-55
2023/01/21 02:32:49;;;;;;;;;;;27.00;74.40;;;;;;5058014;28;20100;-55
2023/01/21 02:35:26;;;;;;;;;;;26.90;74.70;;;;;;5057603;28;20268;-53
2023/01/21 02:37:56;;;;;;;;;;;26.90;74.90;;;;;;5045039;28;19917;-56
2023/01/21 02:40:26;;;;;;;;;;;26.80;74.70;;;;;;5049812;28;19905;-53
2023/01/21 02:42:59;;;;;;;;;;;26.80;74.80;;;;;;5045170;27;20164;-53
2023/01/21 02:45:34;;;;;;;;;;;26.80;74.70;;;;;;5044345;28;19912;-55
2023/01/21 02:48:04;;;;;;;;;;;26.70;74.60;;;;;;5046619;28;20004;-54
2023/01/21 02:50:49;;;;;;;;;;;26.70;74.50;;;;;;5040480;28;19905;-57
2023/01/21 02:53:20;;;;;;;;;;;26.70;74.60;;;;;;5037493;28;19963;-56
2023/01/21 02:55:46;;;;;;;;;;;26.60;74.80;;;;;;5037730;28;19905;-55
2023/01/21 02:58:15;;;;;;;;;;;26.60;74.90;;;;;;5037763;28;19924;-54
2023/01/21 03:00:41;;;;;;;;;;;26.60;75.00;;;;;;5037648;28;19909;-55
2023/01/21 03:03:13;;;;;;;;;;;26.60;75.00;;;;;;5037213;28;20209;-57
2023/01/21 03:06:00;;;;;;;;;;;26.60;75.10;;;;;;5037483;28;20104;-53
2023/01/21 03:08:39;;;;;;;;;;;26.60;75.20;;;;;;5037901;28;19936;-54
2023/01/21 03:11:17;;;;;;;;;;;26.50;75.30;;;;;;5037395;28;20196;-56
2023/01/21 03:16:57;;;;;;;;;;;26.50;75.70;;;;;;5037534;28;19916;-54
2023/01/21 03:19:33;;;;;;;;;;;26.40;75.90;;;;;;5037094;28;19918;-55
2023/01/21 03:22:01;;;;;;;;;;;26.40;76.10;;;;;;5037258;28;19909;-57
2023/01/21 03:24:29;;;;;;;;;;;26.40;76.40;;;;;;5037385;28;19916;-54
2023/01/21 03:26:58;;;;;;;;;;;26.40;76.60;;;;;;5037470;28;19910;-54
2023/01/21 03:29:25;;;;;;;;;;;26.40;76.70;;;;;;5031773;28;19921;-53
2023/01/21 03:31:57;;;;;;;;;;;26.30;76.80;;;;;;5024012;28;19909;-50
2023/01/21 03:34:24;;;;;;;;;;;26.30;76.80;;;;;;5023961;28;19919;-56
2023/01/21 03:36:53;;;;;;;;;;;26.30;76.60;;;;;;5024133;28;20101;-53
2023/01/21 03:39:38;;;;;;;;;;;26.30;76.50;;;;;;5023631;28;19980;-57
2023/01/21 03:42:07;;;;;;;;;;;26.30;76.60;;;;;;5023712;28;19928;-55
2023/01/21 03:44:34;;;;;;;;;;;26.20;77.20;;;;;;5023703;28;19909;-56
2023/01/21 03:47:16;;;;;;;;;;;26.30;76.70;;;;;;5023728;28;19906;-52
2023/01/21 03:49:52;;;;;;;;;;;26.20;76.40;;;;;;5023792;28;20216;-54
2023/01/21 03:52:20;;;;;;;;;;;26.20;76.00;;;;;;5023704;28;19921;-54
2023/01/21 03:54:47;;;;;;;;;;;26.20;75.50;;;;;;5023757;28;19909;-55
2023/01/21 03:57:14;;;;;;;;;;;26.20;75.10;;;;;;5023476;28;19905;-53
2023/01/21 03:59:40;;;;;;;;;;;26.20;74.50;;;;;;5023553;28;19957;-55
2023/01/21 04:02:07;;;;;;;;;;;26.20;74.20;;;;;;5023562;28;19909;-53
2023/01/21 04:04:33;;;;;;;;;;;26.20;73.80;;;;;;5023386;28;19957;-54
2023/01/21 04:06:59;;;;;;;;;;;26.20;73.50;;;;;;5023406;28;19971;-57
2023/01/21 04:09:25;;;;;;;;;;;26.20;73.20;;;;;;5023458;28;19946;-54
2023/01/21 04:11:52;;;;;;;;;;;26.20;72.90;;;;;;5023378;28;19909;-53
2023/01/21 04:14:18;;;;;;;;;;;26.20;72.70;;;;;;5023877;28;20215;-53
2023/01/21 04:16:44;;;;;;;;;;;26.20;72.30;;;;;;5023453;28;19910;-53
2023/01/21 04:19:10;;;;;;;;;;;26.20;71.80;;;;;;5023663;28;20013;-56
2023/01/21 04:21:36;;;;;;;;;;;26.20;71.50;;;;;;5023146;28;19906;-53
2023/01/21 04:24:02;;;;;;;;;;;26.20;71.10;;;;;;5023663;28;19913;-54
2023/01/21 04:26:28;;;;;;;;;;;26.20;70.70;;;;;;5023549;28;19917;-53
2023/01/21 04:28:55;;;;;;;;;;;26.20;70.70;;;;;;5022998;28;19921;-56
2023/01/21 04:31:21;;;;;;;;;;;26.20;70.60;;;;;;5023129;28;19909;-54
2023/01/21 04:33:47;;;;;;;;;;;26.20;70.70;;;;;;5023572;28;19909;-57
2023/01/21 04:36:13;;;;;;;;;;;26.20;70.50;;;;;;5022966;28;19916;-53
2023/01/21 04:38:39;;;;;;;;;;;26.20;70.90;;;;;;5023344;28;20096;-56
2023/01/21 04:41:05;;;;;;;;;;;26.20;70.20;;;;;;5021982;28;20105;-55
2023/01/21 04:43:31;;;;;;;;;;;26.20;70.10;;;;;;5023188;28;20085;-54
2023/01/21 04:45:58;;;;;;;;;;;26.20;70.10;;;;;;5022838;28;19905;-54
2023/01/21 04:48:24;;;;;;;;;;;26.10;70.10;;;;;;5023147;28;20251;-53
2023/01/21 04:50:50;;;;;;;;;;;26.10;70.10;;;;;;5022740;28;19909;-52
2023/01/21 04:53:17;;;;;;;;;;;26.10;70.00;;;;;;5023017;28;19928;-55
2023/01/21 04:55:43;;;;;;;;;;;26.10;69.90;;;;;;5022780;28;19976;-58
2023/01/21 04:58:09;;;;;;;;;;;26.10;69.90;;;;;;5030366;28;20185;-54
2023/01/21 05:00:35;;;;;;;;;;;26.10;70.00;;;;;;5026909;28;20156;-53
2023/01/21 05:03:02;;;;;;;;;;;26.10;69.80;;;;;;5040354;28;19954;-54
2023/01/21 05:05:28;;;;;;;;;;;26.10;70.40;;;;;;5042387;28;19957;-57
2023/01/21 05:07:54;;;;;;;;;;;26.10;69.60;;;;;;5042337;28;19913;-53
2023/01/21 05:10:20;;;;;;;;;;;26.10;69.30;;;;;;5042276;28;20026;-58
2023/01/21 05:12:47;;;;;;;;;;;26.10;69.00;;;;;;5042324;28;19988;-53
2023/01/21 05:15:13;;;;;;;;;;;26.10;68.80;;;;;;5042145;28;20201;-54
2023/01/21 05:17:39;;;;;;;;;;;26.10;68.70;;;;;;5042253;28;19989;-54
2023/01/21 05:20:05;;;;;;;;;;;26.10;68.40;;;;;;5042353;28;19916;-52
2023/01/21 05:22:32;;;;;;;;;;;26.10;68.30;;;;;;5041915;28;19916;-54
2023/01/21 05:24:59;;;;;;;;;;;26.10;68.20;;;;;;5042144;28;19916;-53
2023/01/21 05:27:25;;;;;;;;;;;26.00;68.00;;;;;;5042112;28;20216;-54
2023/01/21 05:29:51;;;;;;;;;;;26.00;67.90;;;;;;5041784;28;19920;-53
2023/01/21 05:32:18;;;;;;;;;;;26.00;68.00;;;;;;5041886;28;19966;-55
2023/01/21 05:34:44;;;;;;;;;;;26.00;68.00;;;;;;5041958;28;19912;-55
2023/01/21 05:37:10;;;;;;;;;;;26.00;67.90;;;;;;5041650;28;19983;-55
2023/01/21 05:39:36;;;;;;;;;;;26.00;67.80;;;;;;5041871;28;19909;-57
2023/01/21 05:42:04;;;;;;;;;;;26.00;67.70;;;;;;5122418;27;19908;-60
2023/01/21 05:44:30;;;;;;;;;;;26.00;67.70;;;;;;5145820;27;20195;-53
2023/01/21 05:46:56;;;;;;;;;;;26.00;68.00;;;;;;5145766;27;19918;-53
2023/01/21 05:49:22;;;;;;;;;;;26.00;67.80;;;;;;5146046;27;19911;-53
2023/01/21 05:51:49;;;;;;;5.70;3.30;;;26.00;67.70;;;;;;5145862;27;19942;-56
2023/01/21 05:54:15;;;;;;;;;;;26.00;67.70;;;;;;5146043;27;19970;-54
2023/01/21 05:56:41;;;;;;;;;;;26.00;67.70;;;;;;5145854;27;19909;-53
2023/01/21 05:59:08;;;;;;;;;;;25.90;67.80;;;;;;5146135;27;19907;-53
2023/01/21 06:01:34;;;;;;;;;;;25.90;67.80;;;;;;5145551;27;19938;-54
2023/01/21 06:04:00;;;;;;;;;;;25.90;67.80;;;;;;5146211;27;19908;-53
2023/01/21 06:06:26;;;;;;;;;;;25.90;67.80;;;;;;5145521;27;19910;-53
2023/01/21 06:08:52;;;;;;;;;;;25.90;67.70;;;;;;5145405;27;19952;-54
2023/01/21 06:11:18;;;;;;;;;;;25.90;67.80;;;;;;5145578;27;19903;-56
2023/01/21 06:13:45;;;;;;;;;;;25.90;67.90;;;;;;5146046;27;19968;-54
2023/01/21 06:16:11;;;;;;;;;;;25.80;68.00;;;;;;5145307;27;19909;-54
2023/01/21 06:18:37;;;;;;;;;;;25.80;68.30;;;;;;5145780;27;19918;-60
2023/01/21 06:21:03;;;;;;;;;;;25.80;68.60;;;;;;5145503;27;20099;-56
2023/01/21 06:23:29;;;;;;;;;;;25.70;68.80;;;;;;5145637;27;19903;-54
2023/01/21 06:26:02;;;;;;;;;;;25.70;68.80;;;;;;5145530;27;20205;-53
2023/01/21 06:28:29;;;;;;;;;;;25.80;68.70;;;;;;5145459;27;19915;-54
2023/01/21 06:30:55;;;;;;;;;;;25.70;68.50;;;;;;5145133;27;19903;-58
2023/01/21 06:33:21;;;;;;;;;;;25.80;68.20;;;;;;5088590;27;19913;-53
2023/01/21 06:35:47;;;;;;;;;;;25.70;68.10;;;;;;5041208;28;19908;-51
2023/01/21 06:38:13;;;;;;;;;;;25.70;68.00;;;;;;5041088;28;19913;-56
2023/01/21 06:40:40;;;;;;;;;;;25.70;68.00;;;;;;5040991;28;19942;-54
2023/01/21 06:43:06;;;;;;;;;;;25.70;68.10;;;;;;5041322;28;19916;-54
2023/01/21 06:45:32;;;;;;;;;;;25.70;67.90;;;;;;5040837;28;19975;-54
2023/01/21 06:47:58;;;;;;;;;;;25.70;67.90;;;;;;5041284;28;19920;-53
2023/01/21 06:50:24;;;;;;;;;;;25.60;68.00;;;;;;5040881;28;19912;-53
2023/01/21 06:52:50;;;;;;;;;;;25.70;68.10;;;;;;5041002;28;19970;-56
2023/01/21 06:55:16;;;;;;;;;;;25.60;68.10;;;;;;5040728;28;20134;-58
2023/01/21 06:57:43;;;;;;;;;;;25.60;68.10;;;;;;5040897;28;19954;-55
2023/01/21 07:00:10;;;;;;;;;;;25.60;68.30;;;;;;5040796;28;19905;-54
2023/01/21 07:02:36;;;;;;;;;;;25.60;68.40;;;;;;5040651;28;20177;-56
2023/01/21 07:05:03;;;;;;;;;;;25.60;68.40;;;;;;5042518;28;20189;-54
2023/01/21 07:07:29;;;;;;;;;;;25.60;68.30;;;;;;5044190;28;19939;-53
2023/01/21 07:09:55;;;;;;;;;;;25.60;68.40;;;;;;5044035;28;19905;-55
2023/01/21 07:12:21;;;;;;;;;;;25.60;68.50;;;;;;5044150;28;19905;-59
2023/01/21 07:14:47;;;;;;;;;;;25.60;68.70;;;;;;5044187;28;19938;-54
2023/01/21 07:17:15;;;;;;;;;;;25.60;69.30;;;;;;5043863;28;19912;-53
2023/01/21 07:19:41;;;;;;;;;;;25.50;68.70;;;;;;5043895;28;19950;-54
2023/01/21 07:22:07;;;;;;;;;;;25.50;68.90;;;;;;5043983;28;19904;-53
2023/01/21 07:24:33;;;;;;;;;;;25.50;69.10;;;;;;5043708;28;19905;-53
2023/01/21 07:26:59;;;;;;;;;;;25.50;69.20;;;;;;5043864;28;19905;-56
2023/01/21 07:29:27;;;;;;;;;;;25.50;69.30;;;;;;5043687;28;19913;-55
2023/01/21 07:31:53;;;;;;;;;;;25.50;69.30;;;;;;5043690;28;20011;-53
2023/01/21 07:34:19;;;;;;;;;;;25.40;69.80;;;;;;5044209;28;19941;-55
2023/01/21 07:36:46;;;;;;;;;;;25.40;69.30;;;;;;5043651;28;19924;-54
2023/01/21 07:39:12;;;;;;;;;;;25.40;69.10;;;;;;5044071;28;19913;-51
2023/01/21 07:41:38;;;;;;;;;;;25.40;69.20;;;;;;5043605;28;19912;-54
2023/01/21 07:44:04;;;;;;;;;;;25.40;69.30;;;;;;5044046;28;19909;-52
2023/01/21 07:46:32;;;;;;;;;;;25.40;69.40;;;;;;5043537;28;19905;-57
2023/01/21 07:48:58;;;;;;;;;;;25.30;69.50;;;;;;5043400;28;19905;-51
2023/01/21 07:51:24;;;;;;;;;;;25.30;69.40;;;;;;5042754;28;19960;-54
2023/01/21 07:53:50;;;;;;;;;;;25.30;69.30;;;;;;5043387;28;19988;-52
2023/01/21 07:56:19;;;;;;;;;;;25.30;69.20;;;;;;5043614;28;19905;-53
2023/01/21 07:58:45;;;;;;;;;;;25.30;69.20;;;;;;5043621;28;19920;-55
2023/01/21 08:01:12;;;;;;;;;;;25.40;69.10;;;;;;5043359;28;19968;-53
2023/01/21 08:03:38;;;;;;;;;;;25.40;69.00;;;;;;5043602;28;19931;-53
2023/01/21 08:06:05;;;;;;;;;;;25.30;68.90;;;;;;5043188;28;19943;-53
2023/01/21 08:08:31;;;;;;;;;;;25.30;68.90;;;;;;5043631;28;19988;-55
2023/01/21 08:10:57;;;;;;;;;;;25.30;68.90;;;;;;5043055;28;19905;-53
2023/01/21 08:13:24;;;;;;;;;;;25.30;68.90;;;;;;5043477;28;19912;-54
2023/01/21 08:15:51;;;;;;;;;;;25.30;68.70;;;;;;5043085;28;20212;-53
2023/01/21 08:18:18;;;;;;;;;;;25.30;68.80;;;;;;5043105;28;19923;-54
2023/01/21 08:20:44;;;;;;;;;;;25.30;69.10;;;;;;5043060;28;19905;-55
2023/01/21 08:23:10;;;;;;;;;;;25.20;69.10;;;;;;5042744;28;19909;-53
2023/01/21 08:25:37;;;;;;;;;;;25.30;69.10;;;;;;5051069;28;19908;-53
2023/01/21 08:28:03;;;;;;;;;;;25.20;68.90;;;;;;5062814;28;19908;-50
2023/01/21 08:30:30;;;;;;;;;;;25.20;69.00;;;;;;5062772;28;19904;-52
2023/01/21 08:32:56;;;;;;;;;;;25.20;69.10;;;;;;5062880;28;20185;-52
2023/01/21 08:35:22;;;;;;;;;;;25.10;69.00;;;;;;5062808;28;19904;-53
2023/01/21 08:37:48;;;;;;;;;;;25.10;68.80;;;;;;5043314;27;19980;-53
2023/01/21 08:40:14;;;;;;;;;;;25.20;68.90;;;;;;5042796;28;20105;-51
2023/01/21 08:42:41;;;;;;;;;;;25.10;68.90;;;;;;5062316;28;19991;-55
2023/01/21 08:45:07;;;;;;;;;;;25.10;68.90;;;;;;5062604;28;19905;-55
2023/01/21 08:47:33;;;;;;;;;;;25.10;69.00;;;;;;5062688;28;19916;-54
2023/01/21 08:49:59;;;;;;;;;;;25.10;69.20;;;;;;5062429;28;20143;-53
2023/01/21 08:52:25;;;;;;;;;;;25.10;69.30;;;;;;5062587;28;19909;-55
2023/01/21 08:54:52;;;;;;;;;;;25.10;69.30;;;;;;5062416;28;19912;-53
2023/01/21 08:57:18;;;;;;;;;;;25.10;69.30;;;;;;5062209;28;19943;-53
2023/01/21 08:59:44;;;;;;;;;;;25.00;69.10;;;;;;5062441;28;20135;-53
2023/01/21 09:02:10;;;;;;;;;;;25.10;69.10;;;;;;5062306;28;19907;-53
2023/01/21 09:04:36;;;;;;;;;;;25.10;68.90;;;;;;5060800;28;19905;-54
2023/01/21 09:07:02;;;;;;;;;;;25.00;68.70;;;;;;5042295;28;19940;-58
2023/01/21 09:09:29;;;;;;;;;;;25.10;68.60;;;;;;5042469;28;19905;-54
2023/01/21 09:11:55;;;;;;;;;;;25.10;68.70;;;;;;5042209;28;19905;-56
2023/01/21 09:14:21;;;;;;;;;;;25.10;69.00;;;;;;5042747;28;19974;-53
2023/01/21 09:16:48;;;;;;;;;;;25.10;68.50;;;;;;5042202;28;19905;-54
2023/01/21 09:19:14;;;;;;;;;;;25.00;68.40;;;;;;5042403;28;19913;-55
2023/01/21 09:21:40;;;;;;;;;;;25.10;68.60;;;;;;5042100;28;19913;-51
2023/01/21 09:24:06;;;;;;;;;;;25.10;68.50;;;;;;5051330;28;20092;-52
2023/01/21 09:26:33;;;;;;;;;;;25.10;68.40;;;;;;5061882;28;19904;-55
2023/01/21 09:28:59;;;;;;;;;;;25.10;68.30;;;;;;5061335;28;19917;-54
2023/01/21 09:31:27;;;;;;;;;;;25.10;68.20;;;;;;5061882;28;19905;-53
2023/01/21 09:33:57;;;;;;;;;;;25.10;68.10;;;;;;5062113;28;19944;-58
2023/01/21 09:36:25;;;;;;;;;;;25.00;68.00;;;;;;5061979;28;19919;-58
2023/01/21 09:38:51;;;;;;;;;;;25.10;68.10;;;;;;5061994;28;19913;-53
2023/01/21 09:41:32;;;;;;;;;;;25.10;68.00;;;;;;5061876;28;19904;-51
2023/01/21 09:44:07;;;;;;;;;;;25.10;67.90;;;;;;5062212;28;19930;-53
2023/01/21 09:46:42;;;;;;;;;;;25.10;67.90;;;;;;5061609;28;20188;-52
2023/01/21 09:49:12;;;;;;;;;;;25.10;67.90;;;;;;5062107;28;19979;-52
2023/01/21 09:51:47;;;;;;;;;;;25.10;67.80;;;;;;5061573;28;19911;-54
2023/01/21 09:54:34;;;;;;;;;;;25.10;67.70;;;;;;5061946;28;20088;-53
2023/01/21 09:57:03;;;;;;;;;;;25.00;67.60;;;;;;5061165;28;19946;-50
2023/01/21 09:59:42;;;;;;;;;;;25.10;67.70;;;;;;5049776;28;19954;-55
2023/01/21 10:02:23;;;;;;;;;;;25.00;67.80;;;;;;5041476;28;19943;-56
2023/01/21 10:05:08;;;;;;;;;;;25.00;67.90;;;;;;5041648;28;19905;-53
2023/01/21 10:07:38;;;;;;;;;;;25.00;67.90;;;;;;5041604;28;19940;-52
2023/01/21 10:10:33;;;;;;;;;;;25.00;68.20;;;;;;5041408;28;19912;-54
2023/01/21 10:13:17;;;;;;;;;;;25.00;68.10;;;;;;5045997;28;19909;-55
2023/01/21 10:16:02;;;;;;;;;;;25.00;68.20;;;;;;5041056;28;19909;-56
2023/01/21 10:18:30;;;;;;;;;;;24.90;68.30;;;;;;5041483;28;20035;-55
2023/01/21 10:21:00;;;;;;;;;;;24.90;68.50;;;;;;5041351;28;19905;-52
2023/01/21 10:23:30;;;;;;;;;;;24.90;68.70;;;;;;5040997;28;19980;-54
2023/01/21 10:25:58;;;;;;;;;;;24.90;68.80;;;;;;5041286;28;19905;-53
2023/01/21 10:28:27;;;;;;;;;;;24.90;68.80;;;;;;5041215;28;19924;-53
2023/01/21 10:30:55;;;;;;;;;;;24.90;68.90;;;;;;5039486;28;19913;-53
2023/01/21 10:33:25;;;;;;;;;;;24.90;68.90;;;;;;5052516;28;19947;-53
2023/01/21 10:35:54;;;;;;;;;;;24.90;68.90;;;;;;5061048;28;19905;-52
2023/01/21 10:38:24;;;;;;;;;;;24.90;68.90;;;;;;5055663;28;19992;-54
2023/01/21 10:41:01;;;;;;;;;;;24.90;69.00;;;;;;5057175;28;19912;-57
2023/01/21 10:43:31;;;;;;;;;;;24.90;69.30;;;;;;5064765;28;19948;-53
2023/01/21 10:46:03;;;;;;;;;;;24.90;69.50;;;;;;5051367;28;19912;-53
2023/01/21 10:48:37;;;;;;;;;;;24.90;69.70;;;;;;5044454;28;19909;-52
2023/01/21 10:51:04;;;;;;;;;;;24.90;69.90;;;;;;5044698;28;19976;-53
2023/01/21 10:53:35;;;;;;;;;;;24.90;70.00;;;;;;5044783;28;19940;-53
2023/01/21 10:56:19;;;;;;;;;;;24.90;70.20;;;;;;5044407;28;20193;-52
2023/01/21 10:58:57;;;;;;;;;;;24.90;70.40;;;;;;5043446;28;20301;-56
2023/01/21 11:01:27;;;;;;;;;;;24.90;70.50;;;;;;5042361;28;19940;-53
2023/01/21 11:03:55;;;;;;;;;;;24.80;70.30;;;;;;5045783;28;19909;-54
2023/01/21 11:06:22;;;;;;;;;;;24.80;70.20;;;;;;5044415;28;20252;-53
2023/01/21 11:08:50;;;;;;;;;;;24.80;70.20;;;;;;5031629;28;19909;-53
2023/01/21 11:11:19;;;;;;;;;;;24.80;70.20;;;;;;5033320;28;19912;-54
2023/01/21 11:13:45;;;;;;;;;;;24.80;70.20;;;;;;5043210;28;20361;-56
2023/01/21 11:16:11;;;;;;;;;;;24.80;70.00;;;;;;5056938;28;19927;-51
2023/01/21 11:18:39;;;;;;;;;;;24.90;70.00;;;;;;5037439;28;20149;-52
2023/01/21 11:21:08;;;;;;;;;;;24.80;69.90;;;;;;5036421;28;19912;-53
2023/01/21 11:23:34;;;;;;;;;;;24.80;70.10;;;;;;5035160;28;19913;-53
2023/01/21 11:26:15;;;;;;;;;;;24.80;70.30;;;;;;5034725;28;20211;-54
2023/01/21 11:28:41;;;;;;;;;;;24.90;70.40;;;;;;5033345;28;20201;-54
2023/01/21 11:31:25;;;;;;;;;;;24.90;70.40;;;;;;5037557;28;19906;-54
2023/01/21 11:33:51;;;;;;;;;;;24.90;70.50;;;;;;5042971;28;20208;-55
2023/01/21 11:36:19;;;;;;;;;;;24.90;70.80;;;;;;5043823;28;19932;-54
2023/01/21 11:38:47;;;;;;;;;;;24.90;70.90;;;;;;5044256;28;19965;-54
2023/01/21 11:41:21;;;;;;;;;;;24.90;70.90;;;;;;5043612;28;19909;-54
2023/01/21 11:43:47;;;;;;;;;;;24.90;70.90;;;;;;5044262;28;19976;-53
2023/01/21 11:46:20;;;;;;;;;;;25.00;70.90;;;;;;5043647;28;19905;-49
2023/01/21 11:48:46;;;;;;;;;;;25.00;71.20;;;;;;5043963;28;19937;-55
2023/01/21 11:51:12;;;;;;;;;;;25.00;71.60;;;;;;5043084;28;20212;-54
2023/01/21 11:53:40;;;;;;;;;;;25.00;72.10;;;;;;5043603;28;20078;-55
2023/01/21 11:56:06;;;;;;;;;;;25.00;72.10;;;;;;5042377;28;19937;-55
2023/01/21 11:58:37;;;;;;;;;;;25.10;72.20;;;;;;5043281;28;19913;-56
2023/01/21 12:01:04;;;;;;;;;;;25.00;72.00;;;;;;5043425;28;19941;-58
2023/01/21 12:03:36;;;;;;;;;;;24.90;72.00;;;;;;5043541;28;19965;-59
2023/01/21 12:06:02;;;;;;;;;;;24.90;72.10;;;;;;5043281;28;19905;-56
2023/01/21 12:08:30;;;;;;;;;;;24.90;73.10;;;;;;5043475;28;19947;-54
2023/01/21 12:11:00;;;;;;;;;;;24.90;72.80;;;;;;5042016;28;19956;-53
2023/01/21 12:13:33;;;;;;;;;;;24.90;72.80;;;;;;5043153;28;19976;-53
2023/01/21 12:16:02;;;;;;;;;;;25.00;72.80;;;;;;5042693;28;19905;-61
2023/01/21 12:18:34;;;;;;;;;;;25.00;72.80;;;;;;5043348;28;19983;-54
2023/01/21 12:21:04;;;;;;;;;;;25.10;72.80;;;;;;5043037;28;19913;-53
2023/01/21 12:23:30;;;;;;;;;;;25.10;72.60;;;;;;5043225;28;19905;-57
2023/01/21 12:26:15;;;;;;;;;;;25.20;72.40;;;;;;5043040;28;19953;-57
2023/01/21 12:28:47;;;;;;;;;;;25.20;72.30;;;;;;5042696;28;19985;-56
2023/01/21 12:31:28;;;;;;;;;;;25.30;72.10;;;;;;5042836;28;19905;-53
2023/01/21 12:33:58;;;;;;;;;;;25.30;72.00;;;;;;5043312;28;19936;-56
2023/01/21 12:36:28;;;;;;;;;;;25.30;72.10;;;;;;5042828;28;19953;-54
2023/01/21 12:39:14;;;;;;;;;;;25.30;72.00;;;;;;5043108;28;19916;-54
2023/01/21 12:41:41;;;;;;;;;;;25.40;72.20;;;;;;5046118;28;19992;-54
2023/01/21 12:44:13;;;;;;;;;;;25.40;72.40;;;;;;5043129;28;19913;-53
2023/01/21 12:46:43;;;;;;;;;;;25.50;72.50;;;;;;5042616;28;20005;-57
2023/01/21 12:49:10;;;;;;;;;;;25.50;72.50;;;;;;5043141;28;19944;-54
2023/01/21 12:51:39;;;;;;;;;;;25.50;72.80;;;;;;5042698;28;19905;-57
2023/01/21 12:54:10;;;;;;;;;;;25.50;73.10;;;;;;5042919;28;19916;-53
2023/01/21 12:56:39;;;;;;;;;;;25.50;73.20;;;;;;5042463;28;19908;-55
2023/01/21 12:59:22;;;;;;;;;;;25.50;73.60;;;;;;5042915;28;19913;-54
2023/01/21 13:01:57;;;;;;;;;;;25.50;73.60;;;;;;5041676;28;19901;-54
2023/01/21 13:04:42;;;;;;;;;;;25.60;74.10;;;;;;5042397;28;20201;-54
2023/01/21 13:07:28;;;;;;;;;;;25.60;74.20;;;;;;5042345;27;19908;-57
2023/01/21 13:10:03;;;;;;;;;;;25.60;74.20;;;;;;5052645;28;19905;-57
2023/01/21 13:12:31;;;;;;;;;;;25.70;74.30;;;;;;5042440;28;19950;-59
2023/01/21 13:15:14;;;;;;;;;;;25.70;74.80;;;;;;5042173;28;19984;-51
2023/01/21 13:17:42;;;;;;;;;;;25.70;75.00;;;;;;5042253;28;19957;-54
2023/01/21 13:20:15;;;;;;;;;;;25.70;74.50;;;;;;5042071;28;19905;-54
2023/01/21 13:22:53;;;;;;;;;;;25.70;74.30;;;;;;5042228;28;20260;-53
2023/01/21 13:25:19;;;;;;;;;;;25.70;73.80;;;;;;5042085;28;19950;-55
2023/01/21 13:27:45;;;;;;;;;;;25.70;73.80;;;;;;5042182;28;20126;-54
2023/01/21 13:30:17;;;;;;;;;;;25.70;73.60;;;;;;5041903;28;19920;-54
2023/01/21 13:32:51;;;;;;;;;;;25.60;73.80;;;;;;5042087;28;19909;-54
2023/01/21 13:35:32;;;;;;;;;;;25.70;73.70;;;;;;5042343;28;20276;-54
2023/01/21 13:38:27;;;;;;;;;;;25.60;74.00;;;;;;5041873;28;20008;-54
2023/01/21 13:41:00;;;;;;;;;;;25.60;73.60;;;;;;5046294;28;19905;-53
2023/01/21 13:43:53;;;;;;;;;;;25.60;73.60;;;;;;5041896;28;19916;-55
2023/01/21 13:46:22;;;;;;;;;;;25.60;73.60;;;;;;5041893;28;19905;-53
2023/01/21 13:49:06;;;;;;;;;;;25.60;73.60;;;;;;5041997;28;19905;-54
2023/01/21 13:51:39;;;;;;;;;;;25.60;73.90;;;;;;5041748;28;19905;-54
2023/01/21 13:54:28;;;;;;;;;;;25.60;73.90;;;;;;5041983;28;19909;-55
2023/01/21 13:56:57;;;;;;;;;;;25.70;73.80;;;;;;5041713;28;20237;-55
2023/01/21 13:59:26;;;;;;;;;;;25.70;74.10;;;;;;5041402;28;19913;-53
2023/01/21 14:02:08;;;;;;;;;;;25.70;74.30;;;;;;5041612;28;19912;-54
2023/01/21 14:04:38;;;;;;;;;;;25.70;74.40;;;;;;5041466;28;20036;-55
2023/01/21 14:07:26;;;;;;;;;;;25.70;74.40;;;;;;5041473;28;19943;-55
2023/01/21 14:09:56;;;;;;;;;;;25.80;74.80;;;;;;5041381;28;19912;-54
2023/01/21 14:12:32;;;;;;;;;;;25.80;74.80;;;;;;5041450;28;20111;-52
2023/01/21 14:15:02;;;;;;;;;;;25.80;75.00;;;;;;5041388;28;20070;-52
2023/01/21 14:17:51;;;;;;;;;;;25.80;75.40;;;;;;5041344;28;19985;-52
2023/01/21 14:20:50;;;;;;;;;;;25.90;75.80;;;;;;5041193;28;19912;-59
2023/01/21 14:23:28;;;;;;;;;;;25.90;76.00;;;;;;5052611;28;19944;-51
2023/01/21 14:25:57;;;;;;;;;;;25.90;76.10;;;;;;5041312;28;19905;-52
2023/01/21 14:28:32;;;;;;;;;;;25.90;76.30;;;;;;5041246;28;19917;-55
2023/01/21 14:31:03;;;;;;;;;;;25.90;76.00;;;;;;5041025;28;19908;-53
2023/01/21 14:33:37;;;;;;;;;;;26.00;76.00;;;;;;5041440;28;19909;-52
2023/01/21 14:36:07;;;;;;;;;;;26.00;76.20;;;;;;5041046;28;19901;-52
2023/01/21 14:38:44;;;;;;;;;;;26.00;76.40;;;;;;5041326;28;19920;-53
2023/01/21 14:41:12;;;;;;;;;;;26.00;76.50;;;;;;5041094;28;20240;-54
2023/01/21 14:43:43;;;;;;;;;;;26.10;76.80;;;;;;5041256;28;19909;-53
2023/01/21 14:46:22;;;;;;;;;;;26.10;76.90;;;;;;5040987;28;20092;-58
2023/01/21 14:48:59;;;;;;;;;;;26.10;76.80;;;;;;5041266;28;19916;-53